createdAt,value
2018-07-17T00:00:39.010Z,18.70
2018-07-17T00:03:07.216Z,18.80
2018-07-17T00:05:35.523Z,18.80
2018-07-17T00:08:03.756Z,18.90
2018-07-17T00:10:31.958Z,18.90
2018-07-17T00:13:00.183Z,18.90
2018-07-17T00:15:28.391Z,19.00
2018-07-17T00:17:56.649Z,19.00
2018-07-17T00:20:24.857Z,19.00
2018-07-17T00:22:53.038Z,19.10
2018-07-17T00:25:21.241Z,19.10
2018-07-17T00:27:49.447Z,19.00
2018-07-17T00:30:17.655Z,18.80
2018-07-17T00:32:45.850Z,18.70
2018-07-17T00:35:14.058Z,18.70
2018-07-17T00:37:42.270Z,18.60
2018-07-17T00:40:10.470Z,18.60
2018-07-17T00:42:38.675Z,18.70
2018-07-17T00:45:06.885Z,18.70
2018-07-17T00:47:35.106Z,18.90
2018-07-17T00:50:03.306Z,18.90
2018-07-17T00:52:31.533Z,18.90
2018-07-17T00:54:59.732Z,19.00
2018-07-17T00:57:27.959Z,19.10
2018-07-17T00:59:56.167Z,19.10
2018-07-17T01:02:29.984Z,19.10
2018-07-17T01:05:03.660Z,19.10
2018-07-17T01:07:37.247Z,19.00
2018-07-17T01:10:10.894Z,18.90
2018-07-17T01:12:38.365Z,18.90
2018-07-17T01:15:10.756Z,18.90
2018-07-17T01:17:38.962Z,18.90
2018-07-17T01:20:07.228Z,18.90
2018-07-17T01:22:35.443Z,18.90
2018-07-17T01:25:03.666Z,18.60
2018-07-17T01:27:31.905Z,18.70
2018-07-17T01:30:00.134Z,18.70
2018-07-17T01:32:28.325Z,18.60
2018-07-17T01:34:56.531Z,18.60
2018-07-17T01:37:24.753Z,18.60
2018-07-17T01:39:52.962Z,18.60
2018-07-17T01:42:21.363Z,18.50
2018-07-17T01:44:49.590Z,18.60
2018-07-17T01:47:17.829Z,18.50
2018-07-17T01:49:46.017Z,18.60
2018-07-17T01:52:14.227Z,18.60
2018-07-17T01:54:42.430Z,18.70
2018-07-17T01:57:10.622Z,18.70
2018-07-17T01:59:38.850Z,18.60
2018-07-17T02:02:07.139Z,18.60
2018-07-17T02:04:35.355Z,18.50
2018-07-17T02:07:03.570Z,18.50
2018-07-17T02:09:31.714Z,18.50
2018-07-17T02:11:59.863Z,18.40
2018-07-17T02:14:28.023Z,18.40
2018-07-17T02:16:56.169Z,18.40
2018-07-17T02:19:24.326Z,18.40
2018-07-17T02:21:52.491Z,18.40
2018-07-17T02:24:20.647Z,18.40
2018-07-17T02:26:48.847Z,18.50
2018-07-17T02:29:16.998Z,18.60
2018-07-17T02:31:45.156Z,18.60
2018-07-17T02:36:41.240Z,18.50
2018-07-17T02:39:09.611Z,18.40
2018-07-17T02:41:37.772Z,18.40
2018-07-17T02:44:05.995Z,18.30
2018-07-17T02:46:34.155Z,18.40
2018-07-17T02:49:02.302Z,18.40
2018-07-17T02:51:30.491Z,18.40
2018-07-17T02:53:58.706Z,18.40
2018-07-17T02:56:26.925Z,18.40
2018-07-17T02:58:55.106Z,18.40
2018-07-17T03:01:23.232Z,18.40
2018-07-17T03:03:51.395Z,18.40
2018-07-17T03:06:19.566Z,18.40
2018-07-17T03:08:47.742Z,18.40
2018-07-17T03:11:15.920Z,18.30
2018-07-17T03:13:44.080Z,18.40
2018-07-17T03:16:12.818Z,18.40
2018-07-17T03:18:41.150Z,18.40
2018-07-17T03:21:09.327Z,18.40
2018-07-17T03:23:37.475Z,18.50
2018-07-17T03:26:06.094Z,18.50
2018-07-17T03:28:37.812Z,18.50
2018-07-17T03:31:06.380Z,18.50
2018-07-17T03:33:34.551Z,18.50
2018-07-17T03:36:02.703Z,18.40
2018-07-17T03:38:30.870Z,18.30
2018-07-17T03:40:59.046Z,18.40
2018-07-17T03:45:55.163Z,18.20
2018-07-17T03:48:23.331Z,18.20
2018-07-17T03:50:51.498Z,18.30
2018-07-17T03:53:19.670Z,18.20
2018-07-17T03:55:47.827Z,18.20
2018-07-17T03:58:15.978Z,18.10
2018-07-17T04:00:44.127Z,18.20
2018-07-17T04:03:12.334Z,18.20
2018-07-17T04:05:40.491Z,18.20
2018-07-17T04:08:08.646Z,18.20
2018-07-17T04:10:36.778Z,18.30
2018-07-17T04:13:05.017Z,18.40
2018-07-17T04:15:33.163Z,18.40
2018-07-17T04:18:01.314Z,18.40
2018-07-17T04:20:29.467Z,18.50
2018-07-17T04:22:57.614Z,18.50
2018-07-17T04:25:25.769Z,18.60
2018-07-17T04:27:54.066Z,18.60
2018-07-17T04:30:22.218Z,18.50
2018-07-17T04:32:50.371Z,18.60
2018-07-17T04:35:18.543Z,18.50
2018-07-17T04:37:46.704Z,18.50
2018-07-17T04:40:14.861Z,18.50
2018-07-17T04:42:43.010Z,18.30
2018-07-17T04:45:11.179Z,18.50
2018-07-17T04:47:39.349Z,18.40
2018-07-17T04:50:07.518Z,18.50
2018-07-17T04:52:35.690Z,18.60
2018-07-17T04:55:03.850Z,18.60
2018-07-17T04:57:32.006Z,18.70
2018-07-17T05:00:00.161Z,18.80
2018-07-17T05:02:28.356Z,18.80
2018-07-17T05:04:56.524Z,18.90
2018-07-17T05:07:24.700Z,18.80
2018-07-17T05:09:52.902Z,18.90
2018-07-17T05:12:21.302Z,19.00
2018-07-17T05:14:49.594Z,19.20
2018-07-17T05:17:17.782Z,19.20
2018-07-17T05:19:45.985Z,19.30
2018-07-17T05:22:14.214Z,19.50
2018-07-17T05:24:42.440Z,19.60
2018-07-17T05:27:10.635Z,19.80
2018-07-17T05:29:38.845Z,20.00
2018-07-17T05:32:07.243Z,20.40
2018-07-17T05:34:35.461Z,20.60
2018-07-17T05:37:03.667Z,20.80
2018-07-17T05:39:31.887Z,21.00
2018-07-17T05:42:00.095Z,21.20
2018-07-17T05:44:28.300Z,21.30
2018-07-17T05:46:56.499Z,21.50
2018-07-17T05:49:24.702Z,21.70
2018-07-17T05:51:52.937Z,21.80
2018-07-17T05:54:21.112Z,21.90
2018-07-17T05:56:49.326Z,22.10
2018-07-17T05:59:17.534Z,22.20
2018-07-17T06:01:45.782Z,22.30
2018-07-17T06:04:13.979Z,22.50
2018-07-17T06:06:42.193Z,22.60
2018-07-17T06:09:11.162Z,22.70
2018-07-17T06:11:39.473Z,22.90
2018-07-17T06:14:07.708Z,22.90
2018-07-17T06:16:35.906Z,22.90
2018-07-17T06:19:04.188Z,23.10
2018-07-17T06:21:32.336Z,23.10
2018-07-17T06:24:00.537Z,23.30
2018-07-17T06:26:28.774Z,23.30
2018-07-17T06:28:57.162Z,23.30
2018-07-17T06:31:25.423Z,23.30
2018-07-17T06:33:53.623Z,23.20
2018-07-17T06:36:21.829Z,23.10
2018-07-17T06:38:50.097Z,23.20
2018-07-17T06:41:18.261Z,23.20
2018-07-17T06:43:46.468Z,23.20
2018-07-17T06:46:14.678Z,23.30
2018-07-17T06:48:42.875Z,23.30
2018-07-17T06:51:11.123Z,23.50
2018-07-17T06:53:39.335Z,23.60
2018-07-17T06:56:07.551Z,23.80
2018-07-17T06:58:36.530Z,24.00
2018-07-17T07:01:04.739Z,24.20
2018-07-17T07:03:32.962Z,24.40
2018-07-17T07:06:01.190Z,24.50
2018-07-17T07:08:29.351Z,24.70
2018-07-17T07:10:57.650Z,24.70
2018-07-17T07:13:25.810Z,24.90
2018-07-17T07:15:53.982Z,25.00
2018-07-17T07:18:22.143Z,24.90
2018-07-17T07:20:50.332Z,25.10
2018-07-17T07:23:18.539Z,25.30
2018-07-17T07:25:47.627Z,25.20
2018-07-17T07:28:15.767Z,25.40
2018-07-17T07:30:43.921Z,25.40
2018-07-17T07:33:12.082Z,25.20
2018-07-17T07:35:40.224Z,24.90
2018-07-17T07:38:08.391Z,25.00
2018-07-17T07:40:36.539Z,25.00
2018-07-17T07:43:04.694Z,25.00
2018-07-17T07:45:32.843Z,24.90
2018-07-17T07:48:01.006Z,24.90
2018-07-17T07:50:29.149Z,25.00
2018-07-17T07:52:57.325Z,25.20
2018-07-17T07:55:25.509Z,25.40
2018-07-17T07:57:53.664Z,25.70
2018-07-17T08:00:21.818Z,25.90
2018-07-17T08:02:50.014Z,26.10
2018-07-17T08:05:18.183Z,26.20
2018-07-17T08:07:46.355Z,26.00
2018-07-17T08:10:14.497Z,26.30
2018-07-17T08:12:42.645Z,26.40
2018-07-17T08:15:10.786Z,26.50
2018-07-17T08:17:38.938Z,26.40
2018-07-17T08:20:07.097Z,26.40
2018-07-17T08:22:35.365Z,26.20
2018-07-17T08:25:03.549Z,26.00
2018-07-17T08:27:31.698Z,25.80
2018-07-17T08:29:59.849Z,25.70
2018-07-17T08:32:28.023Z,25.60
2018-07-17T08:34:56.182Z,25.90
2018-07-17T08:37:24.339Z,26.00
2018-07-17T08:39:52.480Z,26.10
2018-07-17T08:42:20.920Z,26.30
2018-07-17T08:44:49.074Z,26.70
2018-07-17T08:47:17.232Z,26.20
2018-07-17T08:52:13.317Z,26.20
2018-07-17T08:54:41.582Z,25.90
2018-07-17T08:57:09.678Z,25.70
2018-07-17T08:59:37.830Z,25.60
2018-07-17T09:02:06.415Z,25.70
2018-07-17T09:04:34.579Z,25.70
2018-07-17T09:07:02.738Z,25.70
2018-07-17T09:09:30.888Z,25.60
2018-07-17T09:11:59.041Z,25.60
2018-07-17T09:14:27.202Z,25.80
2018-07-17T09:16:55.370Z,26.00
2018-07-17T09:19:23.525Z,26.40
2018-07-17T09:21:51.683Z,26.70
2018-07-17T09:24:19.853Z,26.80
2018-07-17T09:26:47.999Z,26.70
2018-07-17T09:29:16.150Z,26.60
2018-07-17T09:31:44.304Z,26.60
2018-07-17T09:34:12.474Z,26.80
2018-07-17T09:36:40.625Z,27.00
2018-07-17T09:39:09.311Z,27.10
2018-07-17T09:41:37.460Z,27.20
2018-07-17T09:44:05.626Z,27.10
2018-07-17T09:46:33.790Z,26.80
2018-07-17T09:53:58.009Z,26.80
2018-07-17T09:56:26.220Z,26.80
2018-07-17T09:58:54.317Z,26.80
2018-07-17T10:01:27.886Z,26.80
2018-07-17T10:03:56.055Z,26.70
2018-07-17T10:06:24.281Z,26.90
2018-07-17T10:08:52.594Z,27.00
2018-07-17T10:11:20.795Z,27.10
2018-07-17T10:13:49.034Z,27.10
2018-07-17T10:16:17.247Z,27.10
2018-07-17T10:21:13.408Z,27.00
2018-07-17T10:23:41.643Z,27.10
2018-07-17T10:26:09.930Z,27.00
2018-07-17T10:28:38.116Z,27.20
2018-07-17T10:33:34.422Z,27.60
2018-07-17T10:36:02.641Z,27.70
2018-07-17T10:38:30.866Z,27.90
2018-07-17T10:40:59.066Z,28.10
2018-07-17T10:43:27.260Z,27.90
2018-07-17T10:45:55.509Z,28.30
2018-07-17T10:48:23.723Z,28.30
2018-07-17T10:50:51.941Z,28.00
2018-07-17T10:53:20.185Z,28.00
2018-07-17T10:55:48.386Z,27.60
2018-07-17T10:58:16.602Z,27.00
2018-07-17T11:00:44.834Z,26.30
2018-07-17T11:03:13.066Z,25.60
2018-07-17T11:05:41.282Z,25.30
2018-07-17T11:08:09.506Z,25.00
2018-07-17T11:10:37.853Z,24.50
2018-07-17T11:13:06.092Z,24.30
2018-07-17T11:15:34.307Z,24.20
2018-07-17T11:18:02.558Z,24.20
2018-07-17T11:20:30.783Z,24.30
2018-07-17T11:22:59.015Z,24.50
2018-07-17T11:25:27.237Z,24.70
2018-07-17T11:27:55.444Z,25.00
2018-07-17T11:30:23.658Z,25.30
2018-07-17T11:32:51.875Z,25.60
2018-07-17T11:35:20.091Z,25.90
2018-07-17T11:37:48.314Z,26.20
2018-07-17T11:40:16.521Z,26.40
2018-07-17T11:42:44.732Z,26.60
2018-07-17T11:45:12.933Z,26.80
2018-07-17T11:47:41.170Z,26.60
2018-07-17T11:50:09.632Z,26.50
2018-07-17T11:52:37.845Z,26.50
2018-07-17T11:55:06.327Z,26.30
2018-07-17T11:57:34.819Z,26.10
2018-07-17T12:00:03.050Z,25.90
2018-07-17T12:02:31.250Z,25.90
2018-07-17T12:04:59.486Z,25.80
2018-07-17T12:07:27.746Z,25.80
2018-07-17T12:09:56.027Z,25.80
2018-07-17T12:12:24.169Z,25.90
2018-07-17T12:14:52.342Z,25.90
2018-07-17T12:17:20.517Z,25.80
2018-07-17T12:19:48.772Z,25.70
2018-07-17T12:22:17.035Z,25.50
2018-07-17T12:24:45.209Z,25.50
2018-07-17T12:27:13.370Z,25.40
2018-07-17T12:29:41.556Z,25.20
2018-07-17T12:32:09.769Z,25.00
2018-07-17T12:34:37.934Z,25.00
2018-07-17T12:37:06.088Z,24.90
2018-07-17T12:39:34.287Z,24.80
2018-07-17T12:42:02.452Z,25.00
2018-07-17T12:46:58.532Z,25.10
2018-07-17T12:49:26.684Z,24.80
2018-07-17T12:51:54.847Z,24.80
2018-07-17T12:54:23.018Z,24.80
2018-07-17T12:56:51.197Z,24.60
2018-07-17T12:59:19.385Z,24.40
2018-07-17T13:01:47.551Z,24.30
2018-07-17T13:04:15.696Z,24.10
2018-07-17T13:06:43.854Z,24.10
2018-07-17T13:09:12.128Z,23.90
2018-07-17T13:11:40.271Z,23.90
2018-07-17T13:14:08.492Z,23.80
2018-07-17T13:16:36.706Z,23.90
2018-07-17T13:19:04.971Z,24.00
2018-07-17T13:21:33.168Z,24.10
2018-07-17T13:24:01.390Z,24.00
2018-07-17T13:26:29.616Z,23.90
2018-07-17T13:28:57.876Z,23.80
2018-07-17T13:31:32.484Z,23.70
2018-07-17T13:34:00.714Z,23.70
2018-07-17T13:36:28.962Z,23.60
2018-07-17T13:38:57.187Z,23.50
2018-07-17T13:41:25.771Z,23.10
2018-07-17T13:43:54.003Z,23.10
2018-07-17T13:46:22.233Z,23.10
2018-07-17T13:48:50.457Z,22.80
2018-07-17T13:51:18.658Z,22.20
2018-07-17T13:53:46.885Z,22.10
2018-07-17T13:56:15.169Z,21.90
2018-07-17T13:58:43.377Z,21.70
2018-07-17T14:01:11.613Z,21.70
2018-07-17T14:03:39.860Z,21.50
2018-07-17T14:06:08.098Z,21.30
2018-07-17T14:08:36.375Z,21.10
2018-07-17T14:11:04.589Z,20.90
2018-07-17T14:13:32.853Z,20.70
2018-07-17T14:16:01.054Z,20.60
2018-07-17T14:18:29.272Z,20.30
2018-07-17T14:20:57.485Z,20.30
2018-07-17T14:23:25.725Z,20.30
2018-07-17T14:25:54.339Z,20.20
2018-07-17T14:28:22.555Z,20.30
2018-07-17T14:30:50.827Z,20.20
2018-07-17T14:33:19.087Z,20.20
2018-07-17T14:35:47.311Z,20.30
2018-07-17T14:38:15.505Z,20.20
2018-07-17T14:40:43.734Z,20.20
2018-07-17T14:43:11.951Z,20.20
2018-07-17T14:45:40.176Z,20.30
2018-07-17T14:48:08.445Z,20.30
2018-07-17T14:50:36.723Z,20.40
2018-07-17T14:53:04.984Z,20.60
2018-07-17T14:55:33.203Z,20.70
2018-07-17T14:58:01.435Z,20.80
2018-07-17T15:00:29.663Z,20.80
2018-07-17T15:02:57.883Z,20.90
2018-07-17T15:05:26.090Z,21.00
2018-07-17T15:07:54.332Z,21.10
2018-07-17T15:10:22.562Z,21.30
2018-07-17T15:12:50.787Z,21.50
2018-07-17T15:15:19.016Z,21.70
2018-07-17T15:17:47.257Z,21.90
2018-07-17T15:20:15.473Z,22.20
2018-07-17T15:22:43.723Z,22.20
2018-07-17T15:25:11.965Z,22.20
2018-07-17T15:27:40.236Z,22.20
2018-07-17T15:30:08.510Z,22.20
2018-07-17T15:32:36.766Z,22.20
2018-07-17T15:35:05.060Z,22.20
2018-07-17T15:37:33.279Z,22.20
2018-07-17T15:40:01.506Z,22.20
2018-07-17T15:42:29.739Z,22.40
2018-07-17T15:44:57.934Z,22.40
2018-07-17T15:47:26.160Z,22.50
2018-07-17T15:49:54.363Z,22.60
2018-07-17T15:52:22.574Z,22.70
2018-07-17T15:54:50.801Z,22.90
2018-07-17T15:57:19.019Z,22.90
2018-07-17T15:59:47.260Z,22.90
2018-07-17T16:02:15.487Z,23.10
2018-07-17T16:07:11.695Z,23.30
2018-07-17T16:09:39.942Z,23.30
2018-07-17T16:12:08.969Z,23.40
2018-07-17T16:14:37.200Z,23.50
2018-07-17T16:17:05.499Z,23.50
2018-07-17T16:19:33.857Z,23.50
2018-07-17T16:22:02.075Z,23.60
2018-07-17T16:24:30.273Z,23.70
2018-07-17T16:26:58.504Z,23.80
2018-07-17T16:29:26.709Z,23.80
2018-07-17T16:31:54.917Z,23.90
2018-07-17T16:34:23.118Z,24.00
2018-07-17T16:36:51.392Z,24.20
2018-07-17T16:39:19.548Z,24.10
2018-07-17T16:41:47.762Z,24.20
2018-07-17T16:44:15.994Z,24.30
2018-07-17T16:46:44.258Z,24.40
2018-07-17T16:49:12.466Z,24.50
2018-07-17T16:51:40.671Z,24.40
2018-07-17T16:54:08.948Z,24.40
2018-07-17T16:56:37.099Z,24.50
2018-07-17T16:59:05.298Z,24.50
2018-07-17T17:01:33.516Z,24.50
2018-07-17T17:06:29.768Z,24.40
2018-07-17T17:08:58.010Z,24.40
2018-07-17T17:11:27.073Z,24.40
2018-07-17T17:13:55.439Z,24.30
2018-07-17T17:16:23.647Z,24.30
2018-07-17T17:18:51.854Z,24.30
2018-07-17T17:21:20.076Z,24.20
2018-07-17T17:23:48.305Z,24.20
2018-07-17T17:26:16.499Z,24.20
2018-07-17T17:28:44.712Z,24.20
2018-07-17T17:31:12.938Z,24.20
2018-07-17T17:33:41.229Z,24.20
2018-07-17T17:36:09.466Z,24.20
2018-07-17T17:38:37.737Z,24.20
2018-07-17T17:41:06.085Z,24.20
2018-07-17T17:43:34.290Z,24.30
2018-07-17T17:46:02.493Z,24.30
2018-07-17T17:48:30.711Z,24.30
2018-07-17T17:50:58.934Z,24.30
2018-07-17T17:53:27.181Z,24.30
2018-07-17T17:55:55.400Z,24.20
2018-07-17T17:58:23.626Z,24.20
2018-07-17T18:00:51.833Z,23.90
2018-07-17T18:03:20.048Z,23.90
2018-07-17T18:05:48.276Z,24.00
2018-07-17T18:08:16.702Z,24.00
2018-07-17T18:13:12.875Z,23.90
2018-07-17T18:15:41.133Z,23.80
2018-07-17T18:18:09.343Z,23.70
2018-07-17T18:20:37.661Z,23.60
2018-07-17T18:23:05.864Z,23.60
2018-07-17T18:25:34.093Z,23.50
2018-07-17T18:28:08.850Z,23.40
2018-07-17T18:30:37.061Z,23.50
2018-07-17T18:33:05.270Z,23.30
2018-07-17T18:35:33.488Z,23.30
2018-07-17T18:38:01.698Z,23.10
2018-07-17T18:40:29.924Z,23.10
2018-07-17T18:42:58.145Z,22.90
2018-07-17T18:45:26.373Z,22.90
2018-07-17T18:47:54.596Z,22.80
2018-07-17T18:50:22.805Z,22.80
2018-07-17T18:52:51.020Z,22.80
2018-07-17T18:55:19.222Z,22.70
2018-07-17T18:57:47.778Z,22.70
2018-07-17T19:00:16.018Z,22.40
2018-07-17T19:02:44.181Z,22.30
2018-07-17T19:05:12.338Z,22.30
2018-07-17T19:07:40.513Z,22.20
2018-07-17T19:10:08.679Z,22.10
2018-07-17T19:12:36.843Z,22.00
2018-07-17T19:15:05.328Z,21.90
2018-07-17T19:17:33.467Z,21.70
2018-07-17T19:20:01.618Z,21.60
2018-07-17T19:22:29.778Z,21.50
2018-07-17T19:24:57.945Z,21.50
2018-07-17T19:27:26.108Z,21.40
2018-07-17T19:29:54.256Z,21.40
2018-07-17T19:32:22.401Z,21.30
2018-07-17T19:34:50.561Z,21.40
2018-07-17T19:37:18.711Z,21.40
2018-07-17T19:39:46.897Z,21.40
2018-07-17T19:43:44.302Z,21.50
2018-07-17T19:46:12.492Z,21.20
2018-07-17T19:48:40.644Z,21.20
2018-07-17T19:51:08.807Z,21.20
2018-07-17T19:53:36.976Z,21.30
2018-07-17T19:56:05.130Z,21.40
2018-07-17T19:58:33.284Z,21.30
2018-07-17T20:01:01.462Z,21.20
2018-07-17T20:03:29.617Z,21.10
2018-07-17T20:05:57.820Z,21.10
2018-07-17T20:08:26.005Z,21.00
2018-07-17T20:10:54.216Z,20.90
2018-07-17T20:13:22.362Z,20.90
2018-07-17T20:15:50.536Z,20.90
2018-07-17T20:18:18.718Z,20.90
2018-07-17T20:20:46.944Z,20.80
2018-07-17T20:23:15.102Z,20.80
2018-07-17T20:25:43.269Z,20.80
2018-07-17T20:28:11.425Z,20.80
2018-07-17T20:30:39.611Z,20.80
2018-07-17T20:33:07.750Z,20.80
2018-07-17T20:35:35.909Z,20.90
2018-07-17T20:38:04.074Z,20.90
2018-07-17T20:43:31.634Z,20.80
2018-07-17T20:46:04.293Z,20.70
2018-07-17T20:48:32.456Z,20.70
2018-07-17T20:51:00.652Z,20.70
2018-07-17T20:53:28.789Z,20.70
2018-07-17T20:56:03.355Z,20.70
2018-07-17T20:58:31.505Z,20.70
2018-07-17T21:01:05.015Z,20.80
2018-07-17T21:03:42.373Z,20.70
2018-07-17T21:06:10.526Z,20.70
2018-07-17T21:08:38.706Z,20.70
2018-07-17T21:13:52.576Z,20.60
2018-07-17T21:18:50.076Z,20.40
2018-07-17T21:21:18.391Z,20.40
2018-07-17T21:23:46.543Z,20.30
2018-07-17T21:26:16.094Z,20.20
2018-07-17T21:28:44.632Z,20.10
2018-07-17T21:31:12.791Z,20.00
2018-07-17T21:33:41.279Z,20.10
2018-07-17T21:36:09.607Z,20.00
2018-07-17T21:38:37.757Z,19.90
2018-07-17T21:41:05.948Z,19.90
2018-07-17T21:43:34.101Z,19.80
2018-07-17T21:46:02.285Z,19.80
2018-07-17T21:48:30.548Z,19.70
2018-07-17T21:50:58.708Z,19.80
2018-07-17T21:53:26.943Z,19.70
2018-07-17T21:55:55.106Z,19.70
2018-07-17T21:58:23.284Z,19.70
2018-07-17T22:00:52.294Z,19.60
2018-07-17T22:03:20.713Z,19.50
2018-07-17T22:05:48.878Z,19.50
2018-07-17T22:08:17.074Z,19.60
2018-07-17T22:10:45.271Z,19.50
2018-07-17T22:13:13.519Z,19.50
2018-07-17T22:18:09.706Z,19.40
2018-07-17T22:20:37.938Z,19.30
2018-07-17T22:23:06.173Z,19.30
2018-07-17T22:25:34.548Z,19.00
2018-07-17T22:28:02.822Z,19.00
2018-07-17T22:30:30.980Z,19.00
2018-07-17T22:32:59.206Z,19.00
2018-07-17T22:35:27.475Z,19.00
2018-07-17T22:37:55.678Z,19.00
2018-07-17T22:40:23.898Z,18.80
2018-07-17T22:42:52.103Z,18.90
2018-07-17T22:45:20.304Z,18.90
2018-07-17T22:47:48.536Z,18.90
2018-07-17T22:50:16.740Z,18.90
2018-07-17T22:52:44.955Z,18.90
2018-07-17T22:55:13.148Z,18.80
2018-07-17T22:57:41.369Z,18.80
2018-07-17T23:00:09.587Z,18.80
2018-07-17T23:02:37.812Z,18.70
2018-07-17T23:05:06.127Z,18.50
2018-07-17T23:07:34.330Z,18.50
2018-07-17T23:10:02.552Z,18.40
2018-07-17T23:12:30.763Z,18.30
2018-07-17T23:14:58.970Z,18.20
2018-07-17T23:17:27.204Z,18.30
2018-07-17T23:19:55.423Z,18.30
2018-07-17T23:22:28.310Z,18.20
2018-07-17T23:24:56.555Z,18.10
2018-07-17T23:27:24.764Z,18.00
2018-07-17T23:29:52.972Z,18.00
2018-07-17T23:32:21.679Z,18.00
2018-07-17T23:34:49.971Z,18.00
2018-07-17T23:37:18.173Z,18.00
2018-07-17T23:39:46.410Z,18.00
2018-07-17T23:42:14.648Z,18.10
2018-07-17T23:44:42.862Z,18.10
2018-07-17T23:47:11.072Z,18.00
2018-07-17T23:49:39.356Z,18.10
2018-07-17T23:52:08.239Z,18.00
2018-07-17T23:54:36.449Z,18.00
2018-07-17T23:57:04.658Z,17.90
2018-07-17T23:59:33.861Z,17.90
